createdAt,value
2022-08-06T00:01:04.360Z,12.60
2022-08-06T00:03:31.237Z,12.60
2022-08-06T00:05:58.126Z,12.60
2022-08-06T00:08:25.929Z,12.60
2022-08-06T00:10:52.775Z,12.60
2022-08-06T00:13:19.246Z,12.50
2022-08-06T00:16:09.994Z,12.50
2022-08-06T00:18:32.755Z,12.50
2022-08-06T00:20:58.848Z,12.50
2022-08-06T00:23:26.633Z,12.40
2022-08-06T00:25:53.940Z,12.40
2022-08-06T00:28:30.692Z,12.30
2022-08-06T00:31:05.889Z,12.20
2022-08-06T00:33:44.331Z,12.20
2022-08-06T00:36:28.169Z,12.20
2022-08-06T00:38:57.358Z,12.10
2022-08-06T00:41:27.030Z,12.10
2022-08-06T00:43:57.463Z,12.10
2022-08-06T00:46:24.074Z,12.10
2022-08-06T00:48:53.726Z,12.00
2022-08-06T00:51:21.578Z,12.00
2022-08-06T00:53:49.026Z,12.00
2022-08-06T00:56:15.104Z,11.90
2022-08-06T00:58:41.441Z,11.90
2022-08-06T01:01:17.160Z,11.90
2022-08-06T01:03:51.589Z,11.80
2022-08-06T01:06:54.571Z,11.80
2022-08-06T01:09:08.772Z,11.80
2022-08-06T02:01:29.447Z,11.50
2022-08-06T02:04:17.941Z,11.50
2022-08-06T02:06:49.728Z,11.50
2022-08-06T02:09:22.926Z,11.50
2022-08-06T02:12:11.722Z,11.40
2022-08-06T02:14:54.407Z,11.30
2022-08-06T02:17:53.817Z,11.20
2022-08-06T02:20:35.483Z,11.20
2022-08-06T02:23:06.768Z,11.20
2022-08-06T02:25:39.512Z,11.20
2022-08-06T02:28:07.508Z,11.20
2022-08-06T02:30:42.553Z,11.20
2022-08-06T02:33:11.055Z,11.30
2022-08-06T02:35:52.509Z,11.30
2022-08-06T02:38:37.216Z,11.20
2022-08-06T02:41:31.075Z,11.10
2022-08-06T02:44:05.558Z,11.10
2022-08-06T02:46:48.612Z,11.10
2022-08-06T02:49:25.765Z,11.10
2022-08-06T02:52:18.023Z,11.10
2022-08-06T02:54:58.403Z,11.10
2022-08-06T02:57:48.396Z,11.20
2022-08-06T03:00:18.883Z,11.20
2022-08-06T03:02:49.306Z,11.20
2022-08-06T03:05:19.360Z,11.20
2022-08-06T03:08:08.643Z,11.10
2022-08-06T03:10:37.697Z,11.00
2022-08-06T03:13:06.066Z,11.00
2022-08-06T03:15:59.885Z,11.00
2022-08-06T03:18:26.842Z,11.00
2022-08-06T03:20:55.374Z,11.00
2022-08-06T03:23:24.366Z,11.00
2022-08-06T03:25:53.381Z,11.00
2022-08-06T03:28:22.968Z,10.90
2022-08-06T03:30:55.822Z,10.90
2022-08-06T03:33:42.297Z,10.80
2022-08-06T03:36:11.257Z,10.80
2022-08-06T03:38:55.865Z,10.80
2022-08-06T03:41:29.374Z,10.80
2022-08-06T03:44:03.903Z,10.80
2022-08-06T03:46:41.491Z,10.70
2022-08-06T03:49:14.045Z,10.70
2022-08-06T03:51:50.480Z,10.70
2022-08-06T03:54:30.298Z,10.70
2022-08-06T03:57:08.235Z,10.70
2022-08-06T03:59:43.521Z,10.70
2022-08-06T04:02:45.123Z,10.70
2022-08-06T04:05:16.373Z,10.80
2022-08-06T04:07:54.853Z,10.80
2022-08-06T04:10:33.501Z,10.80
2022-08-06T04:13:07.837Z,10.70
2022-08-06T04:15:53.442Z,10.60
2022-08-06T04:18:42.580Z,10.60
2022-08-06T04:21:19.793Z,10.60
2022-08-06T04:23:49.113Z,10.50
2022-08-06T04:26:19.767Z,10.50
2022-08-06T04:28:57.480Z,10.50
2022-08-06T04:32:11.116Z,10.50
2022-08-06T04:34:27.059Z,10.60
2022-08-06T04:36:56.448Z,10.70
2022-08-06T04:39:24.901Z,10.80
2022-08-06T04:42:05.808Z,10.80
2022-08-06T04:44:33.476Z,10.80
2022-08-06T04:47:00.767Z,10.80
2022-08-06T04:49:58.329Z,10.70
2022-08-06T04:52:37.117Z,10.70
2022-08-06T04:55:24.156Z,10.80
2022-08-06T04:57:57.224Z,10.80
2022-08-06T05:01:02.985Z,10.90
2022-08-06T05:04:06.393Z,10.90
2022-08-06T05:06:16.268Z,11.00
2022-08-06T05:08:44.314Z,11.10
2022-08-06T05:11:24.325Z,11.20
2022-08-06T05:13:54.935Z,11.20
2022-08-06T05:16:21.975Z,11.20
2022-08-06T05:19:19.538Z,11.30
2022-08-06T05:22:11.690Z,11.40
2022-08-06T05:24:39.550Z,11.50
2022-08-06T05:27:22.146Z,11.60
2022-08-06T05:29:54.570Z,11.70
2022-08-06T05:32:25.225Z,11.80
2022-08-06T05:34:53.083Z,12.00
2022-08-06T05:37:25.078Z,12.40
2022-08-06T05:40:09.962Z,12.70
2022-08-06T05:42:38.333Z,13.10
2022-08-06T05:45:06.336Z,13.50
2022-08-06T05:47:47.641Z,13.80
2022-08-06T05:50:27.209Z,14.10
2022-08-06T05:53:11.891Z,14.50
2022-08-06T05:55:57.359Z,14.90
2022-08-06T05:58:35.955Z,15.30
2022-08-06T06:01:13.881Z,15.70
2022-08-06T06:03:41.936Z,16.10
2022-08-06T06:06:17.432Z,16.40
2022-08-06T06:08:58.544Z,16.80
2022-08-06T06:11:54.746Z,17.30
2022-08-06T06:14:41.815Z,17.70
2022-08-06T06:17:19.406Z,18.20
2022-08-06T06:20:08.404Z,18.60
2022-08-06T06:22:57.725Z,19.00
2022-08-06T06:25:33.423Z,19.60
2022-08-06T06:28:47.208Z,20.00
2022-08-06T06:32:06.430Z,20.40
2022-08-06T06:34:18.199Z,20.90
2022-08-06T06:37:02.598Z,21.30
2022-08-06T06:39:37.480Z,21.50
2022-08-06T06:42:33.249Z,21.90
2022-08-06T06:46:04.520Z,22.30
2022-08-06T07:03:43.631Z,24.40
2022-08-06T07:06:11.837Z,24.80
2022-08-06T07:08:59.873Z,25.20
2022-08-06T07:11:40.167Z,25.30
2022-08-06T07:14:11.121Z,25.60
2022-08-06T07:16:38.153Z,25.80
2022-08-06T07:19:10.192Z,26.00
2022-08-06T07:21:42.298Z,26.30
2022-08-06T07:24:35.955Z,26.70
2022-08-06T07:27:03.516Z,26.90
2022-08-06T07:29:49.667Z,27.40
2022-08-06T07:32:31.992Z,27.80
2022-08-06T07:35:00.438Z,27.90
2022-08-06T07:42:37.303Z,28.90
2022-08-06T07:45:11.206Z,29.30
2022-08-06T07:47:54.380Z,29.50
2022-08-06T07:50:24.307Z,29.50
2022-08-06T07:52:54.776Z,29.80
2022-08-06T07:55:25.371Z,28.90
2022-08-06T07:57:58.892Z,27.60
2022-08-06T08:00:27.355Z,27.90
2022-08-06T08:03:19.435Z,28.80
2022-08-06T08:06:23.667Z,29.60
2022-08-06T08:09:02.143Z,30.40
2022-08-06T08:11:37.672Z,30.80
2022-08-06T08:14:18.930Z,31.40
2022-08-06T08:16:46.300Z,31.90
2022-08-06T08:19:34.670Z,32.40
2022-08-06T08:22:19.156Z,32.70
2022-08-06T08:24:54.157Z,33.10
2022-08-06T08:27:23.569Z,33.40
2022-08-06T08:29:56.924Z,33.80
2022-08-06T08:32:24.184Z,33.80
2022-08-06T08:34:53.520Z,33.10
2022-08-06T08:37:21.419Z,33.60
2022-08-06T08:39:48.653Z,34.10
2022-08-06T08:45:09.062Z,35.20
2022-08-06T08:50:23.008Z,35.70
2022-08-06T09:05:48.006Z,31.40
2022-08-06T09:08:18.915Z,30.10
2022-08-06T09:11:01.261Z,30.20
2022-08-06T09:13:51.329Z,32.20
2022-08-06T09:16:19.370Z,33.50
2022-08-06T09:18:58.255Z,34.40
2022-08-06T09:21:26.025Z,35.40
2022-08-06T09:23:57.911Z,34.60
2022-08-06T10:11:08.660Z,37.60
2022-08-06T10:13:43.944Z,38.00
2022-08-06T10:16:28.967Z,38.40
2022-08-06T10:18:59.244Z,38.90
2022-08-06T10:21:41.298Z,39.40
2022-08-06T10:24:10.594Z,39.70
2022-08-06T10:44:17.375Z,38.40
2022-08-06T10:46:44.158Z,39.20
2022-08-06T10:50:25.480Z,39.60
2022-08-06T10:51:58.766Z,39.40
2022-08-06T10:54:26.761Z,37.80
2022-08-06T10:56:57.826Z,35.60
2022-08-06T10:59:41.410Z,34.00
2022-08-06T11:02:29.181Z,32.70
2022-08-06T11:11:27.862Z,30.00
2022-08-06T11:14:15.016Z,29.90
2022-08-06T11:16:58.996Z,30.20
2022-08-06T11:19:58.833Z,30.10
2022-08-06T11:22:39.635Z,31.00
2022-08-06T11:25:36.851Z,32.90
2022-08-06T11:28:05.271Z,34.50
2022-08-06T11:30:51.743Z,35.00
2022-08-06T11:33:33.257Z,33.80
2022-08-06T11:36:01.524Z,32.30
2022-08-06T11:38:50.651Z,31.20
2022-08-06T11:41:44.611Z,30.40
2022-08-06T11:44:08.222Z,29.80
2022-08-06T11:46:39.373Z,29.30
2022-08-06T11:49:22.366Z,28.90
2022-08-06T11:52:06.810Z,28.50
2022-08-06T11:55:00.678Z,28.20
2022-08-06T11:57:41.674Z,27.80
2022-08-06T12:00:20.568Z,27.50
2022-08-06T12:02:54.667Z,27.30
2022-08-06T12:05:23.371Z,27.10
2022-08-06T12:08:38.674Z,26.90
2022-08-06T12:11:28.815Z,26.90
2022-08-06T12:14:31.955Z,26.80
2022-08-06T12:16:53.950Z,26.70
2022-08-06T12:19:21.574Z,26.70
2022-08-06T12:21:52.691Z,26.90
2022-08-06T12:24:35.666Z,27.20
2022-08-06T12:27:13.205Z,28.10
2022-08-06T12:29:42.136Z,29.70
2022-08-06T12:32:26.968Z,30.40
2022-08-06T12:34:59.848Z,31.80
2022-08-06T12:37:48.088Z,33.10
2022-08-06T12:40:27.196Z,34.40
2022-08-06T12:43:14.177Z,35.30
2022-08-06T12:46:07.149Z,36.20
2022-08-06T12:48:28.124Z,36.40
2022-08-06T12:51:11.386Z,34.90
2022-08-06T12:53:48.764Z,33.50
2022-08-06T12:56:30.846Z,32.50
2022-08-06T12:59:01.820Z,31.80
2022-08-06T13:02:07.338Z,31.40
2022-08-06T13:04:19.026Z,31.00
2022-08-06T13:06:48.484Z,30.50
2022-08-06T13:09:15.969Z,30.10
2022-08-06T13:11:42.563Z,29.60
2022-08-06T13:14:18.426Z,29.30
2022-08-06T13:16:56.725Z,28.90
2022-08-06T13:19:33.255Z,28.60
2022-08-06T13:22:10.370Z,28.60
2022-08-06T13:25:04.121Z,28.30
2022-08-06T13:27:35.371Z,28.30
2022-08-06T13:30:33.009Z,28.60
2022-08-06T13:32:54.181Z,29.20
2022-08-06T13:35:30.480Z,30.50
2022-08-06T13:38:15.728Z,31.60
2022-08-06T13:40:51.573Z,32.20
2022-08-06T13:43:53.765Z,32.90
2022-08-06T13:46:27.963Z,32.50
2022-08-06T13:48:58.999Z,31.50
2022-08-06T13:51:28.841Z,30.50
2022-08-06T13:53:58.248Z,29.80
2022-08-06T13:56:28.827Z,29.20
2022-08-06T13:58:57.613Z,28.60
2022-08-06T14:01:24.603Z,28.20
2022-08-06T14:04:09.447Z,27.80
2022-08-06T14:06:41.418Z,27.50
2022-08-06T14:09:19.186Z,27.40
2022-08-06T14:12:07.665Z,27.40
2022-08-06T14:14:33.917Z,27.40
2022-08-06T14:17:02.739Z,27.40
2022-08-06T14:20:10.007Z,27.30
2022-08-06T14:22:16.296Z,27.30
2022-08-06T14:24:53.036Z,27.30
2022-08-06T14:27:20.083Z,27.30
2022-08-06T14:30:29.676Z,27.10
2022-08-06T14:32:37.344Z,27.00
2022-08-06T14:35:05.572Z,26.80
2022-08-06T14:37:50.051Z,26.60
2022-08-06T14:40:38.035Z,26.40
2022-08-06T14:43:43.249Z,26.30
2022-08-06T14:46:21.875Z,26.00
2022-08-06T14:48:57.115Z,25.90
2022-08-06T14:51:24.627Z,25.70
2022-08-06T14:54:04.948Z,25.60
2022-08-06T14:56:37.887Z,25.50
2022-08-06T14:59:12.238Z,25.40
2022-08-06T15:01:39.836Z,25.40
2022-08-06T15:04:22.515Z,25.30
2022-08-06T15:06:53.106Z,25.30
2022-08-06T15:09:21.075Z,25.20
2022-08-06T15:12:07.495Z,25.10
2022-08-06T15:14:38.575Z,25.00
2022-08-06T15:17:30.566Z,24.90
2022-08-06T15:19:51.321Z,24.90
2022-08-06T15:22:30.895Z,24.80
2022-08-06T15:25:09.643Z,24.70
2022-08-06T15:27:47.461Z,24.70
2022-08-06T15:30:17.834Z,24.70
2022-08-06T15:34:12.642Z,24.80
2022-08-06T15:36:50.644Z,24.80
2022-08-06T15:39:53.585Z,24.80
2022-08-06T15:43:02.318Z,24.80
2022-08-06T15:45:50.054Z,24.70
2022-08-06T15:48:29.099Z,24.60
2022-08-06T15:51:28.873Z,24.60
2022-08-06T15:53:57.841Z,24.50
2022-08-06T15:58:06.761Z,24.50
2022-08-06T16:00:44.280Z,24.40
2022-08-06T16:03:57.134Z,24.40
2022-08-06T16:06:26.013Z,24.30
2022-08-06T16:08:59.871Z,24.30
2022-08-06T16:11:26.734Z,24.20
2022-08-06T16:13:54.589Z,24.20
2022-08-06T16:16:25.198Z,24.10
2022-08-06T16:18:58.894Z,24.10
2022-08-06T16:21:24.993Z,24.00
2022-08-06T16:23:56.701Z,24.00
2022-08-06T16:26:39.760Z,24.00
2022-08-06T16:29:10.336Z,23.90
2022-08-06T16:31:38.082Z,23.90
2022-08-06T16:34:14.810Z,23.90
2022-08-06T16:36:42.547Z,23.80
2022-08-06T16:39:34.952Z,23.80
2022-08-06T16:42:05.508Z,23.80
2022-08-06T16:44:34.582Z,23.70
2022-08-06T16:47:05.151Z,23.60
2022-08-06T16:50:17.554Z,23.60
2022-08-06T16:52:43.673Z,23.50
2022-08-06T16:55:07.982Z,23.40
2022-08-06T16:57:37.162Z,23.40
2022-08-06T17:00:05.194Z,23.30
2022-08-06T17:02:37.407Z,23.30
2022-08-06T17:05:17.401Z,23.20
2022-08-06T17:07:53.940Z,23.10
2022-08-06T17:10:25.691Z,23.00
2022-08-06T17:12:57.850Z,22.90
2022-08-06T17:15:35.066Z,22.80
2022-08-06T17:18:03.112Z,22.80
2022-08-06T17:20:29.826Z,22.80
2022-08-06T17:22:56.933Z,22.70
2022-08-06T17:25:26.418Z,22.70
2022-08-06T17:28:14.379Z,22.70
2022-08-06T17:30:41.061Z,22.50
2022-08-06T17:33:09.815Z,22.40
2022-08-06T17:36:29.378Z,22.30
2022-08-06T17:38:27.788Z,22.30
2022-08-06T17:40:53.891Z,22.20
2022-08-06T17:43:56.362Z,22.20
2022-08-06T17:46:26.200Z,22.10
2022-08-06T17:48:54.508Z,22.10
2022-08-06T17:51:21.178Z,22.00
2022-08-06T17:53:52.101Z,21.90
2022-08-06T17:56:30.745Z,21.80
2022-08-06T17:59:17.379Z,21.70
2022-08-06T18:01:49.140Z,21.60
2022-08-06T18:04:22.322Z,21.50
2022-08-06T18:06:58.628Z,21.40
2022-08-06T18:10:10.718Z,21.30
2022-08-06T18:12:12.203Z,21.20
2022-08-06T18:14:38.552Z,21.10
2022-08-06T18:17:06.121Z,21.10
2022-08-06T18:19:36.261Z,21.00
2022-08-06T18:22:21.065Z,20.90
2022-08-06T18:24:50.531Z,20.90
2022-08-06T18:27:53.624Z,20.80
2022-08-06T18:30:05.627Z,20.70
2022-08-06T18:32:32.415Z,20.70
2022-08-06T18:35:05.608Z,20.60
2022-08-06T18:37:32.401Z,20.50
2022-08-06T18:40:40.469Z,20.40
2022-08-06T18:43:08.668Z,20.40
2022-08-06T18:45:36.810Z,20.30
2022-08-06T18:48:04.365Z,20.20
2022-08-06T18:50:33.027Z,20.10
2022-08-06T18:53:00.252Z,20.00
2022-08-06T18:55:54.072Z,20.00
2022-08-06T18:58:16.101Z,19.90
2022-08-06T19:00:51.504Z,19.90
2022-08-06T19:03:19.136Z,19.80
2022-08-06T19:05:50.947Z,19.80
2022-08-06T19:08:28.821Z,19.70
2022-08-06T19:10:57.685Z,19.60
2022-08-06T19:14:17.319Z,19.60
2022-08-06T19:16:13.810Z,19.50
2022-08-06T19:18:50.936Z,19.40
2022-08-06T19:21:17.827Z,19.40
2022-08-06T19:24:02.699Z,19.30
2022-08-06T19:26:31.400Z,19.20
2022-08-06T19:28:57.934Z,19.20
2022-08-06T19:31:42.795Z,19.10
2022-08-06T19:34:14.773Z,19.00
2022-08-06T19:36:43.330Z,18.90
2022-08-06T19:39:53.622Z,18.90
2022-08-06T19:42:01.731Z,18.80
2022-08-06T19:44:37.566Z,18.80
2022-08-06T19:47:15.202Z,18.80
2022-08-06T19:49:52.018Z,18.70
2022-08-06T19:52:19.373Z,18.70
2022-08-06T19:54:50.069Z,18.60
2022-08-06T19:57:16.279Z,18.60
2022-08-06T20:00:52.023Z,18.50
2022-08-06T20:02:29.525Z,18.50
2022-08-06T20:04:56.876Z,18.40
2022-08-06T20:07:27.977Z,18.40
2022-08-06T20:10:00.058Z,18.30
2022-08-06T20:12:34.668Z,18.20
2022-08-06T20:15:02.525Z,18.10
2022-08-06T20:17:29.828Z,18.00
2022-08-06T20:20:07.163Z,18.00
2022-08-06T20:22:35.180Z,17.90
2022-08-06T20:25:17.893Z,17.80
2022-08-06T20:29:10.360Z,17.70
2022-08-06T20:30:33.235Z,17.70
2022-08-06T20:33:01.499Z,17.60
2022-08-06T20:35:32.394Z,17.50
2022-08-06T20:38:07.007Z,17.50
2022-08-06T20:41:27.089Z,17.40
2022-08-06T20:44:04.655Z,17.30
2022-08-06T20:46:07.179Z,17.20
2022-08-06T20:48:37.493Z,17.10
2022-08-06T20:51:04.212Z,17.10
2022-08-06T20:53:32.266Z,17.00
2022-08-06T20:56:00.328Z,17.00
2022-08-06T20:58:32.529Z,16.90
2022-08-06T21:01:00.070Z,16.80
2022-08-06T21:05:10.294Z,16.70
2022-08-06T21:06:12.871Z,16.60
2022-08-06T21:08:39.582Z,16.60
2022-08-06T21:11:09.765Z,16.50
2022-08-06T21:13:59.696Z,16.40
2022-08-06T21:16:34.148Z,16.30
2022-08-06T21:19:02.777Z,16.30
2022-08-06T21:21:31.469Z,16.30
2022-08-06T21:23:58.936Z,16.30
2022-08-06T21:26:29.595Z,16.20
2022-08-06T21:29:01.486Z,16.10
2022-08-06T21:31:47.605Z,16.00
2022-08-06T21:34:13.841Z,16.00
2022-08-06T21:36:40.238Z,15.90
2022-08-06T21:39:12.991Z,15.90
2022-08-06T21:41:58.353Z,15.80
2022-08-06T21:44:27.821Z,15.80
2022-08-06T21:46:58.789Z,15.70
2022-08-06T21:49:59.960Z,15.70
2022-08-06T21:52:16.153Z,15.60
2022-08-06T21:54:55.678Z,15.60
2022-08-06T21:57:24.818Z,15.60
2022-08-06T21:59:52.050Z,15.50
2022-08-06T22:02:26.255Z,15.50
2022-08-06T22:05:00.248Z,15.40
2022-08-06T22:08:05.131Z,15.40
2022-08-06T22:10:13.817Z,15.30
2022-08-06T22:13:11.797Z,15.30
2022-08-06T22:15:25.999Z,15.30
2022-08-06T22:18:02.734Z,15.20
2022-08-06T22:20:29.440Z,15.20
2022-08-06T22:22:56.192Z,15.10
2022-08-06T22:25:23.390Z,15.10
2022-08-06T22:27:55.216Z,15.00
2022-08-06T22:30:34.249Z,15.00
2022-08-06T22:33:16.326Z,14.90
2022-08-06T22:35:58.409Z,14.90
2022-08-06T22:38:32.185Z,14.90
2022-08-06T22:40:58.765Z,14.80
2022-08-06T22:43:29.435Z,14.80
2022-08-06T22:46:02.027Z,14.80
2022-08-06T22:48:36.393Z,14.70
2022-08-06T22:51:03.798Z,14.60
2022-08-06T22:54:29.262Z,14.60
2022-08-06T22:56:28.300Z,14.60
2022-08-06T22:59:06.080Z,14.60
2022-08-06T23:02:07.653Z,14.50
2022-08-06T23:04:30.129Z,14.40
2022-08-06T23:06:56.376Z,14.40
2022-08-06T23:09:22.868Z,14.40
2022-08-06T23:11:59.145Z,14.40
2022-08-06T23:14:27.263Z,14.40
2022-08-06T23:16:58.080Z,14.30
2022-08-06T23:19:24.642Z,14.20
2022-08-06T23:22:02.180Z,14.20
2022-08-06T23:24:35.359Z,14.20
2022-08-06T23:27:03.596Z,14.10
2022-08-06T23:29:35.011Z,14.10
2022-08-06T23:32:16.783Z,14.00
2022-08-06T23:34:48.086Z,14.00
2022-08-06T23:37:14.126Z,14.00
2022-08-06T23:39:46.989Z,14.00
2022-08-06T23:42:28.959Z,13.90
2022-08-06T23:44:56.252Z,13.90
2022-08-06T23:48:02.981Z,13.90
2022-08-06T23:50:09.609Z,13.80
2022-08-06T23:52:41.705Z,13.70
2022-08-06T23:55:22.481Z,13.70
2022-08-06T23:57:57.374Z,13.70
